Time;durP1;ratioP1;P1;durP2;ratioP2;P2;SDS_P1;SDS_P2;PMS_P1;PMS_P2;Temp;Humidity;BMP_temperature;BMP_pressure;BME280_temperature;BME280_humidity;BME280_pressure;Samples;Min_cycle;Max_cycle;Signal;HPM_P1;HPM_P2
2021/12/10 00:02:04;;;;;;;;;;;;;;;;;;5072947;28;19923;-75
2021/12/10 00:04:31;;;;;;;;;;;;;;;;;;5073057;28;19905;-75
2021/12/10 00:06:57;;;;;;;;;;;;;;;;;;5054985;28;19909;-75
2021/12/10 00:09:23;;;;;;;;;;;;;;;;;;5072886;28;19912;-75
2021/12/10 00:11:49;;;;;;;;;;;;;;;;;;5072761;28;19916;-75
2021/12/10 00:14:15;;;;;;;;;;;;;;;;;;5054566;28;20430;-75
2021/12/10 00:16:41;;;;;;;;;;;;;;;;;;5072801;28;19935;-75
2021/12/10 00:19:44;;;;;;;;;;;;;;;;;;5073591;28;19912;-75
2021/12/10 00:21:59;;;;;;;;;;;;;;;;;;5075523;28;19916;-75
2021/12/10 00:24:28;;;;;;;;;;;;;;;;;;5077556;28;19936;-74
2021/12/10 00:26:54;;;;;;;;;;;;;;;;;;5075902;28;19927;-75
2021/12/10 00:29:20;;;;;;;;;;;;;;;;;;5074333;28;19909;-75
2021/12/10 00:31:48;;;;;;;;;;;;;;;;;;5074086;28;19908;-75
2021/12/10 00:34:14;;;;;;;;;;;;;;;;;;5073183;28;20319;-75
2021/12/10 00:36:40;;;;;;;;;;;;;;;;;;5073029;28;19915;-75
2021/12/10 00:39:06;;;;;;;;;;;;;;;;;;5072818;28;19958;-75
2021/12/10 00:41:31;;;;;;;;;;;;;;;;;;5072879;28;19909;-75
2021/12/10 00:43:57;;;;;;;;;;;;;;;;;;5072818;28;20356;-75
2021/12/10 00:46:23;;;;;;;;;;;;;;;;;;5072669;28;19912;-75
2021/12/10 00:48:49;;;;;;;;;;;;;;;;;;5072558;28;19905;-75
2021/12/10 00:51:15;;;;;;;;;;;;;;;;;;5072416;28;19912;-75
2021/12/10 00:53:41;;;;;;;;;;;;;;;;;;5072484;28;19905;-75
2021/12/10 00:56:06;;;;;;;;;;;;;;;;;;5072349;28;20368;-75
2021/12/10 00:58:32;;;;;;;;;;;;;;;;;;5072047;28;19909;-75
2021/12/10 01:00:58;;;;;;;;;;;;;;;;;;5080103;28;20380;-75
2021/12/10 01:03:24;;;;;;;;;;;;;;;;;;5080303;28;19952;-75
2021/12/10 01:05:50;;;;;;;;;;;;;;;;;;5082588;28;20273;-75
2021/12/10 01:08:16;;;;;;;;;;;;;;;;;;5081169;28;19916;-75
2021/12/10 01:10:42;;;;;;;;;;;;;;;;;;5080068;28;19916;-75
2021/12/10 01:13:10;;;;;;;;;;;;;;;;;;5080498;28;19920;-75
2021/12/10 01:28:42;;;;;;;;;;;;;;;;;;5085114;28;20372;-75
2021/12/10 01:31:08;;;;;;;;;;;;;;;;;;5085456;28;19975;-75
2021/12/10 01:33:33;;;;;;;;;;;;;;;;;;5065280;28;19924;-75
2021/12/10 01:36:01;;;;;;;;;;;;;;;;;;5086798;28;19962;-75
2021/12/10 01:38:27;;;;;;;;;;;;;;;;;;5079048;28;19917;-75
2021/12/10 01:40:55;;;;;;;;;;;;;;;;;;5085948;28;19914;-75
2021/12/10 01:43:24;;;;;;;;;;;;;;;;;;5065433;28;20394;-75
2021/12/10 01:45:50;;;;;;;;;;;;;;;;;;5085203;28;19920;-75
2021/12/10 01:48:16;;;;;;;;;;;;;;;;;;5084120;28;19916;-75
2021/12/10 01:50:42;;;;;;;;;;;;;;;;;;5084286;28;19919;-75
2021/12/10 01:53:08;;;;;;;;;;;;;;;;;;5085342;28;19912;-75
2021/12/10 01:55:34;;;;;;;;;;;;;;;;;;5064976;28;20475;-75
2021/12/10 01:58:00;;;;;;;;;;;;;;;;;;5086143;28;19912;-75
2021/12/10 02:00:26;;;;;;;;;;;;;;;;;;5082589;28;19991;-75
2021/12/10 02:02:52;;;;;;;;;;;;;;;;;;5085330;28;20281;-75
2021/12/10 02:05:17;;;;;;;;;;;;;;;;;;5086092;28;19913;-75
2021/12/10 02:07:43;;;;;;;;;;;;;;;;;;5084228;28;20342;-75
2021/12/10 02:10:09;;;;;;;;;;;;;;;;;;5083351;28;19920;-75
2021/12/10 02:12:35;;;;;;;;;;;;;;;;;;5085100;28;20006;-74
2021/12/10 02:15:03;;;;;;;;;;;;;;;;;;5082432;28;20395;-75
2021/12/10 02:17:29;;;;;;;;;;;;;;;;;;5085934;28;19945;-75
2021/12/10 02:19:55;;;;;;;;;;;;;;;;;;5081657;28;19918;-75
2021/12/10 02:22:20;;;;;;;;;;;;;;;;;;5082953;28;19935;-75
2021/12/10 02:24:46;;;;;;;;;;;;;;;;;;5084198;28;19924;-75
2021/12/10 02:27:12;;;;;;;;;;;;;;;;;;5084014;28;20364;-75
2021/12/10 02:29:38;;;;;;;;;;;;;;;;;;5063714;28;20339;-75
2021/12/10 02:32:04;;;;;;;;;;;;;;;;;;5084926;28;19920;-75
2021/12/10 02:34:30;;;;;;;;;;;;;;;;;;5082049;28;19927;-75
2021/12/10 02:36:55;;;;;;;;;;;;;;;;;;5089024;28;20295;-75
2021/12/10 02:39:21;;;;;;;;;;;;;;;;;;5069968;28;19920;-75
2021/12/10 02:41:47;;;;;;;;;;;;;;;;;;5088151;28;19954;-75
2021/12/10 02:44:13;;;;;;;;;;;;;;;;;;5085243;28;19973;-75
2021/12/10 02:46:39;;;;;;;;;;;;;;;;;;5084267;28;19913;-75
2021/12/10 02:49:05;;;;;;;;;;;;;;;;;;5085293;28;19912;-75
2021/12/10 02:51:32;;;;;;;;;;;;;;;;;;5064321;28;19960;-75
2021/12/10 02:53:58;;;;;;;;;;;;;;;;;;5078530;28;19971;-75
2021/12/10 02:56:24;;;;;;;;;;;;;;;;;;5084811;28;19920;-75
2021/12/10 02:58:50;;;;;;;;;;;;;;;;;;5082593;28;19916;-75
2021/12/10 03:01:16;;;;;;;;;;;;;;;;;;5083558;28;19940;-75
2021/12/10 03:03:42;;;;;;;;;;;;;;;;;;5083604;28;19919;-75
2021/12/10 03:06:10;;;;;;;;;;;;;;;;;;5082219;28;20284;-75
2021/12/10 03:08:36;;;;;;;;;;;;;;;;;;5066341;28;19919;-75
2021/12/10 03:11:02;;;;;;;;;;;;;;;;;;5081197;28;19917;-75
2021/12/10 03:13:28;;;;;;;;;;;;;;;;;;5084913;28;19924;-75
2021/12/10 03:15:54;;;;;;;;;;;;;;;;;;5081629;28;19924;-75
2021/12/10 03:18:20;;;;;;;;;;;;;;;;;;5065683;28;20392;-75
2021/12/10 03:20:46;;;;;;;;;;;;;;;;;;5082591;28;19924;-75
2021/12/10 03:23:12;;;;;;;;;;;;;;;;;;5082404;28;19917;-75
2021/12/10 03:25:38;;;;;;;;;;;;;;;;;;5083291;28;19916;-75
2021/12/10 03:28:03;;;;;;;;;;;;;;;;;;5081082;28;19916;-75
2021/12/10 03:30:29;;;;;;;;;;;;;;;;;;5066503;28;20268;-75
2021/12/10 03:32:55;;;;;;;;;;;;;;;;;;5081165;28;19916;-75
2021/12/10 03:35:22;;;;;;;;;;;;;;;;;;5083406;28;19921;-76
2021/12/10 03:37:48;;;;;;;;;;;;;;;;;;5082228;28;19919;-75
2021/12/10 03:40:14;;;;;;;;;;;;;;;;;;5084505;28;19916;-74
2021/12/10 03:42:40;;;;;;;;;;;;;;;;;;5082115;28;19912;-75
2021/12/10 03:45:06;;;;;;;;;;;;;;;;;;5084319;28;20287;-75
2021/12/10 03:47:32;;;;;;;;;;;;;;;;;;5084174;28;19912;-75
2021/12/10 03:49:57;;;;;;;;;;;;;;;;;;5080785;28;19916;-75
2021/12/10 03:52:23;;;;;;;;;;;;;;;;;;5083532;28;19916;-75
2021/12/10 03:54:49;;;;;;;;;;;;;;;;;;5081431;28;20330;-75
2021/12/10 03:57:15;;;;;;;;;;;;;;;;;;5082529;28;19912;-75
2021/12/10 03:59:41;;;;;;;;;;;;;;;;;;5082801;28;20275;-75
2021/12/10 04:02:07;;;;;;;;;;;;;;;;;;5081200;28;19912;-75
2021/12/10 04:04:33;;;;;;;;;;;;;;;;;;5065781;28;19912;-75
2021/12/10 04:06:59;;;;;;;;;;;;;;;;;;5080243;28;19916;-75
2021/12/10 04:09:25;;;;;;;;;;;;;;;;;;5083477;28;19912;-75
2021/12/10 04:11:51;;;;;;;;;;;;;;;;;;5081426;28;19912;-75
2021/12/10 04:14:16;;;;;;;;;;;;;;;;;;5082304;28;20073;-75
2021/12/10 04:16:42;;;;;;;;;;;;;;;;;;5082544;28;19965;-75
2021/12/10 04:19:08;;;;;;;;;;;;;;;;;;5081212;28;19912;-75
2021/12/10 04:21:39;;;;;;;;;;;;;;;;;;5083465;28;20322;-75
2021/12/10 04:24:05;;;;;;;;;;;;;;;;;;5080838;28;20263;-75
2021/12/10 04:26:31;;;;;;;;;;;;;;;;;;5083801;28;19994;-75
2021/12/10 04:28:57;;;;;;;;;;;;;;;;;;5080409;28;19936;-75
2021/12/10 04:31:23;;;;;;;;;;;;;;;;;;5080374;28;19953;-75
2021/12/10 04:33:49;;;;;;;;;;;;;;;;;;5072634;28;19909;-75
2021/12/10 04:36:16;;;;;;;;;;;;;;;;;;5072731;28;20344;-75
2021/12/10 04:38:43;;;;;;;;;;;;;;;;;;5072595;28;19916;-75
2021/12/10 04:41:09;;;;;;;;;;;;;;;;;;5073052;28;19909;-75
2021/12/10 04:43:34;;;;;;;;;;;;;;;;;;5072696;28;19908;-75
2021/12/10 04:46:00;;;;;;;;;;;;;;;;;;5072692;28;20003;-75
2021/12/10 04:48:26;;;;;;;;;;;;;;;;;;5054365;28;19909;-75
2021/12/10 04:50:52;;;;;;;;;;;;;;;;;;5072341;28;19908;-75
2021/12/10 04:53:18;;;;;;;;;;;;;;;;;;5075321;28;20300;-75
2021/12/10 04:55:44;;;;;;;;;;;;;;;;;;5081347;28;20122;-75
2021/12/10 04:58:09;;;;;;;;;;;;;;;;;;5080830;28;19908;-75
2021/12/10 05:00:35;;;;;;;;;;;;;;;;;;5061274;28;19913;-75
2021/12/10 05:03:04;;;;;;;;;;;;;;;;;;5077878;28;19909;-75
2021/12/10 05:05:30;;;;;;;;;;;;;;;;;;5077334;28;20368;-75
2021/12/10 05:07:56;;;;;;;;;;;;;;;;;;5076687;28;19920;-75
2021/12/10 05:10:21;;;;;;;;;;;;;;;;;;5076648;28;19951;-75
2021/12/10 05:12:47;;;;;;;;;;;;;;;;;;5075439;28;20015;-75
2021/12/10 05:15:13;;;;;;;;;;;;;;;;;;5075944;28;20357;-75
2021/12/10 05:17:40;;;;;;;;;;;;;;;;;;5075872;28;19909;-75
2021/12/10 05:20:06;;;;;;;;;;;;;;;;;;5075773;28;19961;-75
2021/12/10 05:22:32;;;;;;;;;;;;;;;;;;5075878;28;19953;-75
2021/12/10 05:24:58;;;;;;;;;;;;;;;;;;5075779;28;19999;-75
2021/12/10 05:27:24;;;;;;;;;;;;;;;;;;5075399;28;20117;-75
2021/12/10 05:29:50;;;;;;;;;;;;;;;;;;5075371;28;19908;-75
2021/12/10 05:32:17;;;;;;;;;;;;;;;;;;5057701;28;19912;-75
2021/12/10 05:34:43;;;;;;;;;;;;;;;;;;5057401;28;20464;-75
2021/12/10 05:37:09;;;;;;;;;;;;;;;;;;5057659;28;20007;-75
2021/12/10 05:39:34;;;;;;;;;;;;;;;;;;5075700;28;19908;-75
2021/12/10 05:42:03;;;;;;;;;;;;;;;;;;5057683;28;19912;-75
2021/12/10 05:44:29;;;;;;;;;;;;;;;;;;5075494;28;20008;-75
2021/12/10 05:46:55;;;;;;;;;;;;;;;;;;5075231;28;19948;-75
2021/12/10 05:49:21;;;;;;;;;;;;;;;;;;5075198;28;19909;-75
2021/12/10 05:51:46;;;;;;;;;;;;;;;;;;5075261;28;19954;-76
2021/12/10 05:54:12;;;;;;;;;;;;;;;;;;5057533;28;19924;-76
2021/12/10 05:56:38;;;;;;;;;;;;;;;;;;5075462;28;20368;-76
2021/12/10 05:59:04;;;;;;;;;;;;;;;;;;5075405;28;19913;-76
2021/12/10 06:01:30;;;;;;;;;;;;;;;;;;5075548;28;20365;-76
2021/12/10 06:03:56;;;;;;;;;;;;;;;;;;5057087;28;19909;-74
2021/12/10 06:06:22;;;;;;;;;;;;;;;;;;5075189;28;19909;-73
2021/12/10 06:08:47;;;;;;;;;;;;;;;;;;5075081;28;20427;-75
2021/12/10 06:11:13;;;;;;;;;;;;;;;;;;5075050;28;19930;-76
2021/12/10 06:13:40;;;;;;;;;;;;;;;;;;5074847;28;19979;-76
2021/12/10 06:16:07;;;;;;;;;;;;;;;;;;5057210;28;20334;-76
2021/12/10 06:18:33;;;;;;;;;;;;;;;;;;5075049;28;19912;-76
2021/12/10 06:20:59;;;;;;;;;;;;;;;;;;5057051;28;19908;-76
2021/12/10 06:23:25;;;;;;;;;;;;;;;;;;5075123;28;19908;-76
2021/12/10 06:25:51;;;;;;;;;;;;;;;;;;5056815;28;19916;-75
2021/12/10 06:28:17;;;;;;;;;;;;;;;;;;5074728;28;19962;-75
2021/12/10 06:30:42;;;;;;;;;;;;;;;;;;5074756;28;20265;-75
2021/12/10 06:33:08;;;;;;;;;;;;;;;;;;5074495;28;19909;-75
2021/12/10 06:35:34;;;;;;;;;;;;;;;;;;5074394;28;19920;-75
2021/12/10 06:38:00;;;;;;;;;;;;;;;;;;5074551;28;19962;-75
2021/12/10 06:40:26;;;;;;;;;;;;;;;;;;5074559;28;19916;-75
2021/12/10 06:42:52;;;;;;;;;;;;;;;;;;5074148;28;19934;-75
2021/12/10 06:45:18;;;;;;;;;;;;;;;;;;5074082;28;20000;-75
2021/12/10 06:47:47;;;;;;;;;;;;;;;;;;5074214;28;19909;-75
2021/12/10 06:50:13;;;;;;;;;;;;;;;;;;5074157;28;19991;-75
2021/12/10 06:52:39;;;;;;;;;;;;;;;;;;5056051;28;19959;-75
2021/12/10 06:55:05;;;;;;;;;;;;;;;;;;5056159;28;19950;-75
2021/12/10 06:57:31;;;;;;;;;;;;;;;;;;5072875;28;20337;-75
2021/12/10 06:59:57;;;;;;;;;;;;;;;;;;5073437;28;19916;-75
2021/12/10 07:02:23;;;;;;;;;;;;;;;;;;5073547;28;19908;-76
2021/12/10 07:04:49;;;;;;;;;;;;;;;;;;5073636;28;20020;-75
2021/12/10 07:07:15;;;;;;;;;;;;;;;;;;5073466;28;19909;-76
2021/12/10 07:09:41;;;;;;;;;;;;;;;;;;5075319;28;19908;-75
2021/12/10 07:12:07;;;;;;;;;;;;;;;;;;5079044;28;19916;-75
2021/12/10 07:14:33;;;;;;;;;;;;;;;;;;5077534;28;19916;-75
2021/12/10 07:16:59;;;;;;;;;;;;;;;;;;5057374;28;19915;-75
2021/12/10 07:19:27;;;;;;;;;;;;;;;;;;5075195;28;19912;-75
2021/12/10 07:21:52;;;;;;;;;;;;;;;;;;5074716;28;19908;-75
2021/12/10 07:24:19;;;;;;;;;;;;;;;;;;5056391;28;19940;-75
2021/12/10 07:26:45;;;;;;;;;;;;;;;;;;5055985;28;19909;-75
2021/12/10 07:29:11;;;;;;;;;;;;;;;;;;5055515;28;20296;-75
2021/12/10 07:31:37;;;;;;;;;;;;;;;;;;5055760;28;19961;-75
2021/12/10 07:34:02;;;;;;;;;;;;;;;;;;5074165;28;19920;-76
2021/12/10 07:36:28;;;;;;;;;;;;;;;;;;5074322;28;19912;-76
2021/12/10 07:38:56;;;;;;;;;;;;;;;;;;5073635;28;19917;-76
2021/12/10 07:41:22;;;;;;;;;;;;;;;;;;5073626;28;20357;-76
2021/12/10 07:43:47;;;;;;;;;;;;;;;;;;5073590;28;20007;-76
2021/12/10 07:46:13;;;;;;;;;;;;;;;;;;5073111;28;20289;-75
2021/12/10 07:48:39;;;;;;;;;;;;;;;;;;5073277;28;19914;-76
2021/12/10 07:51:06;;;;;;;;;;;;;;;;;;5073501;28;19908;-76
2021/12/10 07:53:32;;;;;;;;;;;;;;;;;;5073714;28;19908;-76
2021/12/10 07:56:00;;;;;;;;;;;;;;;;;;5055064;28;20331;-72
2021/12/10 07:58:26;;;;;;;;;;;;;;;;;;5073038;28;19915;-73
2021/12/10 08:00:52;;;;;;;;;;;;;;;;;;5054935;28;19995;-73
2021/12/10 08:03:18;;;;;;;;;;;;;;;;;;5072988;28;20369;-72
2021/12/10 08:05:43;;;;;;;;;;;;;;;;;;5072968;28;19905;-72
2021/12/10 08:08:09;;;;;;;;;;;;;;;;;;5072860;28;19915;-72
2021/12/10 08:10:35;;;;;;;;;;;;;;;;;;5073004;28;19905;-73
2021/12/10 08:13:01;;;;;;;;;;;;;;;;;;5054488;28;20372;-72
2021/12/10 08:15:27;;;;;;;;;;;;;;;;;;5054637;28;19923;-74
2021/12/10 08:17:53;;;;;;;;;;;;;;;;;;5072148;28;19916;-73
2021/12/10 08:20:19;;;;;;;;;;;;;;;;;;5072335;28;20283;-74
2021/12/10 08:22:45;;;;;;;;;;;;;;;;;;5051988;28;19920;-74
2021/12/10 08:25:10;;;;;;;;;;;;;;;;;;5072741;28;19916;-74
2021/12/10 08:27:37;;;;;;;;;;;;;;;;;;5076079;28;20000;-74
2021/12/10 08:30:03;;;;;;;;;;;;;;;;;;5076826;28;19978;-74
2021/12/10 08:32:29;;;;;;;;;;;;;;;;;;5076754;28;20376;-74
2021/12/10 08:34:55;;;;;;;;;;;;;;;;;;5076227;28;19925;-74
2021/12/10 08:37:21;;;;;;;;;;;;;;;;;;5076487;28;19934;-73
2021/12/10 08:39:47;;;;;;;;;;;;;;;;;;5076364;28;20396;-74
2021/12/10 08:42:13;;;;;;;;;;;;;;;;;;5076473;28;19909;-73
2021/12/10 08:44:39;;;;;;;;;;;;;;;;;;5076151;28;19915;-74
2021/12/10 08:47:04;;;;;;;;;;;;;;;;;;5076577;28;19912;-73
2021/12/10 08:49:30;;;;;;;;;;;;;;;;;;5076315;28;19908;-74
2021/12/10 08:51:56;;;;;;;;;;;;;;;;;;5075972;28;20170;-74
2021/12/10 08:54:22;;;;;;;;;;;;;;;;;;5075699;28;19920;-73
2021/12/10 08:56:48;;;;;;;;;;;;;;;;;;5076212;28;20380;-72
2021/12/10 08:59:14;;;;;;;;;;;;;;;;;;5076264;28;19920;-73
2021/12/10 09:01:41;;;;;;;;;;;;;;;;;;5076178;28;19908;-73
2021/12/10 09:04:07;;;;;;;;;;;;;;;;;;5076284;28;20038;-74
2021/12/10 09:06:33;;;;;;;;;;;;;;;;;;5076122;28;19969;-74
2021/12/10 09:08:59;;;;;;;;;;;;;;;;;;5075999;28;19913;-74
2021/12/10 09:11:25;;;;;;;;;;;;;;;;;;5076001;28;20010;-73
2021/12/10 09:13:51;;;;;;;;;;;;;;;;;;5075772;28;20396;-74
2021/12/10 09:16:21;;;;;;;;;;;;;;;;;;5075993;28;19913;-73
2021/12/10 09:18:47;;;;;;;;;;;;;;;;;;5075940;28;19909;-73
2021/12/10 09:21:13;;;;;;;;;;;;;;;;;;5075816;28;19914;-73
2021/12/10 09:23:39;;;;;;;;;;;;;;;;;;5075727;28;20407;-73
2021/12/10 09:26:05;;;;;;;;;;;;;;;;;;5077042;28;19909;-74
2021/12/10 09:28:31;;;;;;;;;;;;;;;;;;5078430;28;20369;-74
2021/12/10 09:30:57;;;;;;;;;;;;;;;;;;5077031;28;19999;-73
2021/12/10 09:33:22;;;;;;;;;;;;;;;;;;5075708;28;19909;-74
2021/12/10 09:35:48;;;;;;;;;;;;;;;;;;5075474;28;19923;-72
2021/12/10 09:38:15;;;;;;;;;;;;;;;;;;5074801;28;19918;-73
2021/12/10 09:40:41;;;;;;;;;;;;;;;;;;5074731;28;19911;-72
2021/12/10 09:43:07;;;;;;;;;;;;;;;;;;5075422;28;19908;-72
2021/12/10 09:45:33;;;;;;;;;;;;;;;;;;5057426;28;20018;-73
2021/12/10 09:47:59;;;;;;;;;;;;;;;;;;5075546;28;19958;-72
2021/12/10 09:50:25;;;;;;;;;;;;;;;;;;5075110;28;20354;-72
2021/12/10 09:52:51;;;;;;;;;;;;;;;;;;5074825;28;19966;-74
2021/12/10 09:55:17;;;;;;;;;;;;;;;;;;5075051;28;19942;-74
2021/12/10 09:57:43;;;;;;;;;;;;;;;;;;5075264;28;19908;-73
2021/12/10 10:00:10;;;;;;;;;;;;;;;;;;5075250;28;19956;-74
2021/12/10 10:02:35;;;;;;;;;;;;;;;;;;5075170;28;19916;-73
2021/12/10 10:05:01;;;;;;;;;;;;;;;;;;5075059;28;19909;-73
2021/12/10 10:07:27;;;;;;;;;;;;;;;;;;5075267;28;20343;-73
2021/12/10 10:09:53;;;;;;;;;;;;;;;;;;5075107;28;19909;-72
2021/12/10 10:12:19;;;;;;;;;;;;;;;;;;5074785;28;20381;-73
2021/12/10 10:14:45;;;;;;;;;;;;;;;;;;5074820;28;19916;-73
2021/12/10 10:17:11;;;;;;;;;;;;;;;;;;5074879;28;19908;-74
2021/12/10 10:19:37;;;;;;;;;;;;;;;;;;5074843;28;20002;-74
2021/12/10 10:22:03;;;;;;;;;;;;;;;;;;5074686;28;20043;-73
2021/12/10 10:24:29;;;;;;;;;;;;;;;;;;5074674;28;19924;-74
2021/12/10 10:26:56;;;;;;;;;;;;;;;;;;5074707;28;20340;-74
2021/12/10 10:29:21;;;;;;;;;;;;;;;;;;5074715;28;19909;-74
2021/12/10 10:31:49;;;;;;;;;;;;;;;;;;5074503;28;20269;-74
2021/12/10 10:34:15;;;;;;;;;;;;;;;;;;5074179;28;20330;-74
2021/12/10 10:36:41;;;;;;;;;;;;;;;;;;5074358;28;19909;-74
2021/12/10 10:39:09;;;;;;;;;;;;;;;;;;5074360;28;19904;-74
2021/12/10 10:41:35;;;;;;;;;;;;;;;;;;5074378;28;19912;-73
2021/12/10 10:44:02;;;;;;;;;;;;;;;;;;5074349;28;20344;-74
2021/12/10 10:46:27;;;;;;;;;;;;;;;;;;5074304;28;19917;-74
2021/12/10 10:48:53;;;;;;;;;;;;;;;;;;5074083;28;19904;-74
2021/12/10 10:51:19;;;;;;;;;;;;;;;;;;5073273;28;19916;-74
2021/12/10 10:53:45;;;;;;;;;;;;;;;;;;5073734;28;19912;-74
2021/12/10 10:56:12;;;;;;;;;;;;;;;;;;5073775;28;19916;-74
2021/12/10 10:58:38;;;;;;;;;;;;;;;;;;5074106;28;19908;-73
2021/12/10 11:01:08;;;;;;;;;;;;;;;;;;5073609;28;19919;-73
2021/12/10 11:03:38;;;;;;;;;;;;;;;;;;5073377;28;19909;-74
2021/12/10 11:06:04;;;;;;;;;;;;;;;;;;5070840;28;20003;-74
2021/12/10 11:08:30;;;;;;;;;;;;;;;;;;5073529;28;20009;-74
2021/12/10 11:11:04;;;;;;;;;;;;;;;;;;5090688;27;20291;-73
2021/12/10 11:13:31;;;;;;;;;;;;;;;;;;5090353;28;20006;-74
2021/12/10 11:15:57;;;;;;;;;;;;;;;;;;5090007;28;19920;-74
2021/12/10 11:18:23;;;;;;;;;;;;;;;;;;5090431;28;20157;-72
2021/12/10 11:20:48;;;;;;;;;;;;;;;;;;5090476;28;19908;-74
2021/12/10 11:23:16;;;;;;;;;;;;;;;;;;5089923;28;19908;-72
2021/12/10 11:25:42;;;;;;;;;;;;;;;;;;5089919;28;19965;-72
2021/12/10 11:28:08;;;;;;;;;;;;;;;;;;5090381;28;20395;-73
2021/12/10 11:30:34;;;;;;;;;;;;;;;;;;5090203;28;19916;-74
2021/12/10 11:33:04;;;;;;;;;;;;;;;;;;5090062;28;20383;-74
2021/12/10 11:35:30;;;;;;;;;;;;;;;;;;5090333;28;19912;-74
2021/12/10 11:37:56;;;;;;;;;;;;;;;;;;5088899;28;19920;-73
2021/12/10 11:40:22;;;;;;;;;;;;;;;;;;5090149;28;19904;-73
2021/12/10 11:42:55;;;;;;;;;;;;;;;;;;5090020;28;19908;-72
2021/12/10 11:45:30;;;;;;;;;;;;;;;;;;5089600;28;20372;-74
2021/12/10 11:48:05;;;;;;;;;;;;;;;;;;5089890;28;19916;-75
2021/12/10 11:50:31;;;;;;;;;;;;;;;;;;5088494;28;20426;-75
2021/12/10 11:52:57;;;;;;;;;;;;;;;;;;5088085;28;19913;-73
2021/12/10 11:55:22;;;;;;;;;;;;;;;;;;5089381;28;19962;-73
2021/12/10 11:57:50;;;;;;;;;;;;;;;;;;5088871;28;19999;-74
2021/12/10 12:00:16;;;;;;;;;;;;;;;;;;5089076;28;20395;-73
2021/12/10 12:02:41;;;;;;;;;;;;;;;;;;5088376;28;19909;-73
2021/12/10 12:05:07;;;;;;;;;;;;;;;;;;5089697;28;20357;-74
2021/12/10 12:07:35;;;;;;;;;;;;;;;;;;5089661;28;19942;-73
2021/12/10 12:10:02;;;;;;;;;;;;;;;;;;5088069;28;19920;-75
2021/12/10 12:12:28;;;;;;;;;;;;;;;;;;5089488;28;19958;-74
2021/12/10 12:15:02;;;;;;;;;;;;;;;;;;5089283;28;20319;-72
2021/12/10 12:17:27;;;;;;;;;;;;;;;;;;5088365;28;20257;-74
2021/12/10 12:19:53;;;;;;;;;;;;;;;;;;5088162;28;19916;-73
2021/12/10 12:25:10;;;;;;;;;;;;;;;;;;5075759;28;20437;-72
2021/12/10 12:27:36;;;;;;;;;;;;;;;;;;5075749;28;19913;-74
2021/12/10 12:30:06;;;;;;;;;;;;;;;;;;5075785;28;19924;-73
2021/12/10 12:32:32;;;;;;;;;;;;;;;;;;5075626;28;19908;-73
2021/12/10 12:34:58;;;;;;;;;;;;;;;;;;5075628;28;19909;-73
2021/12/10 12:37:24;;;;;;;;;;;;;;;;;;5075450;28;20383;-73
2021/12/10 12:39:50;;;;;;;;;;;;;;;;;;5075653;28;19909;-74
2021/12/10 12:42:15;;;;;;;;;;;;;;;;;;5075401;28;20403;-74
2021/12/10 12:44:41;;;;;;;;;;;;;;;;;;5075450;28;19931;-74
2021/12/10 12:47:07;;;;;;;;;;;;;;;;;;5075478;28;19916;-74
2021/12/10 12:49:33;;;;;;;;;;;;;;;;;;5075252;28;20361;-73
2021/12/10 12:51:59;;;;;;;;;;;;;;;;;;5075212;28;19909;-74
2021/12/10 12:54:25;;;;;;;;;;;;;;;;;;5075194;28;19909;-72
2021/12/10 12:56:51;;;;;;;;;;;;;;;;;;5074970;28;19915;-74
2021/12/10 12:59:17;;;;;;;;;;;;;;;;;;5073836;28;19912;-75
2021/12/10 13:01:43;;;;;;;;;;;;;;;;;;5075010;28;19982;-73
2021/12/10 13:04:09;;;;;;;;;;;;;;;;;;5075090;28;20276;-72
2021/12/10 13:06:35;;;;;;;;;;;;;;;;;;5074472;28;19966;-75
2021/12/10 13:09:01;;;;;;;;;;;;;;;;;;5077663;28;20465;-72
2021/12/10 13:11:29;;;;;;;;;;;;;;;;;;5076508;28;19908;-73
2021/12/10 13:13:59;;;;;;;;;;;;;;;;;;5094550;28;19940;-73
2021/12/10 13:16:25;;;;;;;;;;;;;;;;;;5094601;28;19951;-74
2021/12/10 13:18:51;;;;;;;;;;;;;;;;;;5094703;28;19915;-73
2021/12/10 13:21:17;;;;;;;;;;;;;;;;;;5094063;28;19973;-74
2021/12/10 13:23:43;;;;;;;;;;;;;;;;;;5094636;28;19947;-72
2021/12/10 13:26:11;;;;;;;;;;;;;;;;;;5076318;28;19919;-73
2021/12/10 13:28:37;;;;;;;;;;;;;;;;;;5094453;28;19947;-73
2021/12/10 13:31:02;;;;;;;;;;;;;;;;;;5094530;28;19962;-73
2021/12/10 13:33:28;;;;;;;;;;;;;;;;;;5092860;28;19912;-73
2021/12/10 13:35:55;;;;;;;;;;;;;;;;;;5075942;28;19909;-72
2021/12/10 13:38:21;;;;;;;;;;;;;;;;;;5094050;28;19916;-73
2021/12/10 13:40:47;;;;;;;;;;;;;;;;;;5094096;28;20020;-73
2021/12/10 13:43:14;;;;;;;;;;;;;;;;;;5093964;28;19908;-74
2021/12/10 13:45:41;;;;;;;;;;;;;;;;;;5094076;28;19994;-73
2021/12/10 13:48:12;;;;;;;;;;;;;;;;;;5075896;28;19912;-74
2021/12/10 13:50:39;;;;;;;;;;;;;;;;;;5094062;28;19927;-74
2021/12/10 13:53:05;;;;;;;;;;;;;;;;;;5093885;28;20006;-74
2021/12/10 13:55:31;;;;;;;;;;;;;;;;;;5094283;28;19955;-74
2021/12/10 13:57:57;;;;;;;;;;;;;;;;;;5094211;28;20004;-74
2021/12/10 14:00:23;;;;;;;;;;;;;;;;;;5094201;28;19961;-74
2021/12/10 14:02:49;;;;;;;;;;;;;;;;;;5093839;28;19915;-72
2021/12/10 14:05:15;;;;;;;;;;;;;;;;;;5094131;28;20402;-73
2021/12/10 14:07:41;;;;;;;;;;;;;;;;;;5094106;28;19908;-74
2021/12/10 14:10:07;;;;;;;;;;;;;;;;;;5093491;28;19928;-73
2021/12/10 14:12:35;;;;;;;;;;;;;;;;;;5093508;28;20003;-73
2021/12/10 14:15:01;;;;;;;;;;;;;;;;;;5093200;28;19959;-72
2021/12/10 14:17:27;;;;;;;;;;;;;;;;;;5093805;28;20352;-73
2021/12/10 14:19:53;;;;;;;;;;;;;;;;;;5093481;28;19915;-72
2021/12/10 14:22:19;;;;;;;;;;;;;;;;;;5093753;28;20382;-72
2021/12/10 14:24:46;;;;;;;;;;;;;;;;;;5075515;28;19914;-73
2021/12/10 14:27:12;;;;;;;;;;;;;;;;;;5093766;28;19908;-73
2021/12/10 14:29:37;;;;;;;;;;;;;;;;;;5093629;28;19916;-73
2021/12/10 14:32:03;;;;;;;;;;;;;;;;;;5093457;28;19915;-73
2021/12/10 14:34:29;;;;;;;;;;;;;;;;;;5093480;28;19904;-73
2021/12/10 14:36:55;;;;;;;;;;;;;;;;;;5093505;28;19951;-74
2021/12/10 14:39:21;;;;;;;;;;;;;;;;;;5093290;28;19911;-74
2021/12/10 14:41:47;;;;;;;;;;;;;;;;;;5093468;28;19908;-73
2021/12/10 14:44:13;;;;;;;;;;;;;;;;;;5093262;28;19908;-74
2021/12/10 14:46:38;;;;;;;;;;;;;;;;;;5075274;28;20364;-75
2021/12/10 14:49:04;;;;;;;;;;;;;;;;;;5093075;28;20006;-73
2021/12/10 14:51:30;;;;;;;;;;;;;;;;;;5075184;28;20036;-74
2021/12/10 14:53:56;;;;;;;;;;;;;;;;;;5093303;28;20260;-72
2021/12/10 14:56:22;;;;;;;;;;;;;;;;;;5092848;28;19912;-73
2021/12/10 14:58:48;;;;;;;;;;;;;;;;;;5093301;28;19908;-73
2021/12/10 15:01:14;;;;;;;;;;;;;;;;;;5093169;28;19908;-72
2021/12/10 15:03:40;;;;;;;;;;;;;;;;;;5093133;28;19908;-74
2021/12/10 15:06:05;;;;;;;;;;;;;;;;;;5093310;28;19959;-73
2021/12/10 15:08:32;;;;;;;;;;;;;;;;;;5093190;28;19951;-74
2021/12/10 15:10:58;;;;;;;;;;;;;;;;;;5074801;28;19920;-73
2021/12/10 15:13:23;;;;;;;;;;;;;;;;;;5093018;28;20280;-73
2021/12/10 15:15:49;;;;;;;;;;;;;;;;;;5093079;28;19914;-73
2021/12/10 15:18:15;;;;;;;;;;;;;;;;;;5092983;28;19916;-74
2021/12/10 15:20:41;;;;;;;;;;;;;;;;;;5092770;28;19909;-73
2021/12/10 15:23:07;;;;;;;;;;;;;;;;;;5093005;28;19915;-74
2021/12/10 15:25:33;;;;;;;;;;;;;;;;;;5093142;28;19930;-73
2021/12/10 15:27:59;;;;;;;;;;;;;;;;;;5092838;28;20006;-74
2021/12/10 15:30:27;;;;;;;;;;;;;;;;;;5093281;28;19916;-74
2021/12/10 15:32:53;;;;;;;;;;;;;;;;;;5092624;28;19912;-74
2021/12/10 15:35:19;;;;;;;;;;;;;;;;;;5092993;28;20272;-73
2021/12/10 15:37:45;;;;;;;;;;;;;;;;;;5092962;28;19998;-73
2021/12/10 15:40:10;;;;;;;;;;;;;;;;;;5092743;28;19952;-72
2021/12/10 15:42:37;;;;;;;;;;;;;;;;;;5092294;28;19908;-73
2021/12/10 15:45:03;;;;;;;;;;;;;;;;;;5092341;28;19931;-73
2021/12/10 15:47:29;;;;;;;;;;;;;;;;;;5092640;28;20368;-72
2021/12/10 15:49:55;;;;;;;;;;;;;;;;;;5092757;28;19986;-73
2021/12/10 15:52:21;;;;;;;;;;;;;;;;;;5092507;28;20118;-73
2021/12/10 15:54:47;;;;;;;;;;;;;;;;;;5092353;28;20295;-71
2021/12/10 15:57:13;;;;;;;;;;;;;;;;;;5095287;28;19919;-70
2021/12/10 15:59:40;;;;;;;;;;;;;;;;;;5096508;28;20019;-72
2021/12/10 16:02:06;;;;;;;;;;;;;;;;;;5096354;28;19914;-71
2021/12/10 16:04:36;;;;;;;;;;;;;;;;;;5096474;28;19909;-72
2021/12/10 16:07:02;;;;;;;;;;;;;;;;;;5096436;28;19908;-73
2021/12/10 16:09:28;;;;;;;;;;;;;;;;;;5095561;28;20288;-72
2021/12/10 16:11:54;;;;;;;;;;;;;;;;;;5096238;28;19915;-72
2021/12/10 16:14:20;;;;;;;;;;;;;;;;;;5096044;28;19997;-71
2021/12/10 16:16:45;;;;;;;;;;;;;;;;;;5096166;28;19912;-73
2021/12/10 16:19:11;;;;;;;;;;;;;;;;;;5096054;28;19908;-73
2021/12/10 16:21:37;;;;;;;;;;;;;;;;;;5096081;28;19915;-73
2021/12/10 16:24:03;;;;;;;;;;;;;;;;;;5077802;28;19908;-73
2021/12/10 16:26:29;;;;;;;;;;;;;;;;;;5095990;28;19908;-71
2021/12/10 16:28:55;;;;;;;;;;;;;;;;;;5095816;28;19912;-73
2021/12/10 16:31:21;;;;;;;;;;;;;;;;;;5095936;28;20026;-71
2021/12/10 16:33:47;;;;;;;;;;;;;;;;;;5095849;28;19916;-73
2021/12/10 16:36:12;;;;;;;;;;;;;;;;;;5095799;28;19908;-72
2021/12/10 16:38:40;;;;;;;;;;;;;;;;;;5095793;28;19908;-72
2021/12/10 16:41:06;;;;;;;;;;;;;;;;;;5095666;28;19935;-74
2021/12/10 16:43:32;;;;;;;;;;;;;;;;;;5093792;28;20059;-74
2021/12/10 16:45:58;;;;;;;;;;;;;;;;;;5093286;28;20323;-73
2021/12/10 16:48:23;;;;;;;;;;;;;;;;;;5095258;28;19908;-73
2021/12/10 16:50:49;;;;;;;;;;;;;;;;;;5077347;28;19916;-73
2021/12/10 16:53:15;;;;;;;;;;;;;;;;;;5095440;28;19912;-72
2021/12/10 16:55:41;;;;;;;;;;;;;;;;;;5095376;28;20045;-72